Terminal Aerodrome Forecast
Issued by NWS St Louis, MO

Home | Current Version | Previous Version | Text Only | Print | Product List | Glossary On
Versions: 1 2 3 4 5 6 7 8 9 10 11 12 13 14 15 16 17
000
FTUS43 KLSX 241250 AAA
TAFCOU
TAF AMD
KCOU 241250Z 2413/2512 28015G25KT 5SM BR BKN006
     FM241800 27016G26KT P6SM BKN025
     FM250400 29015G25KT P6SM OVC015=

USA.gov is the U.S. government's official web portal to all federal, state and local government web resources and services.